sensor_id;sensor_type;location;lat;lon;timestamp;temperature;humidity
2729;DHT22;1372;47.956;7.830;2023-04-24T00:01:11;13.00;99.90
2729;DHT22;1372;47.956;7.830;2023-04-24T00:03:40;13.00;99.90
2729;DHT22;1372;47.956;7.830;2023-04-24T00:06:09;13.00;99.90
2729;DHT22;1372;47.956;7.830;2023-04-24T00:08:39;13.00;99.90
2729;DHT22;1372;47.956;7.830;2023-04-24T00:11:08;12.90;99.90
2729;DHT22;1372;47.956;7.830;2023-04-24T00:13:37;12.90;99.90
2729;DHT22;1372;47.956;7.830;2023-04-24T00:16:06;12.90;99.90
2729;DHT22;1372;47.956;7.830;2023-04-24T00:18:35;12.90;99.90
2729;DHT22;1372;47.956;7.830;2023-04-24T00:21:05;12.90;99.90
2729;DHT22;1372;47.956;7.830;2023-04-24T00:23:34;13.00;99.90
2729;DHT22;1372;47.956;7.830;2023-04-24T00:26:04;12.80;99.90
2729;DHT22;1372;47.956;7.830;2023-04-24T00:28:33;12.90;99.90
2729;DHT22;1372;47.956;7.830;2023-04-24T00:31:01;12.90;99.90
2729;DHT22;1372;47.956;7.830;2023-04-24T00:33:30;12.90;99.90
2729;DHT22;1372;47.956;7.830;2023-04-24T00:35:59;12.90;99.90
2729;DHT22;1372;47.956;7.830;2023-04-24T00:38:28;12.90;99.90
2729;DHT22;1372;47.956;7.830;2023-04-24T00:40:57;12.90;99.90
2729;DHT22;1372;47.956;7.830;2023-04-24T00:43:27;12.90;99.90
2729;DHT22;1372;47.956;7.830;2023-04-24T00:45:57;12.80;99.90
2729;DHT22;1372;47.956;7.830;2023-04-24T00:48:28;12.80;99.90
2729;DHT22;1372;47.956;7.830;2023-04-24T00:50:58;12.80;99.90
2729;DHT22;1372;47.956;7.830;2023-04-24T00:53:27;12.90;99.90
2729;DHT22;1372;47.956;7.830;2023-04-24T00:55:56;12.80;99.90
2729;DHT22;1372;47.956;7.830;2023-04-24T00:58:26;12.80;99.90
2729;DHT22;1372;47.956;7.830;2023-04-24T01:00:56;12.80;99.90
2729;DHT22;1372;47.956;7.830;2023-04-24T01:03:29;12.90;99.90
2729;DHT22;1372;47.956;7.830;2023-04-24T01:05:59;12.80;99.90
2729;DHT22;1372;47.956;7.830;2023-04-24T01:08:28;12.80;99.90
2729;DHT22;1372;47.956;7.830;2023-04-24T01:10:57;12.80;99.90
2729;DHT22;1372;47.956;7.830;2023-04-24T01:13:28;12.80;99.90
2729;DHT22;1372;47.956;7.830;2023-04-24T01:15:56;12.70;99.90
2729;DHT22;1372;47.956;7.830;2023-04-24T01:18:25;12.70;99.90
2729;DHT22;1372;47.956;7.830;2023-04-24T01:20:58;12.70;99.90
2729;DHT22;1372;47.956;7.830;2023-04-24T01:23:28;12.80;99.90
2729;DHT22;1372;47.956;7.830;2023-04-24T01:25:58;12.80;99.90
2729;DHT22;1372;47.956;7.830;2023-04-24T01:28:27;12.70;99.90
2729;DHT22;1372;47.956;7.830;2023-04-24T01:30:56;12.80;99.90
2729;DHT22;1372;47.956;7.830;2023-04-24T01:33:25;12.70;99.90
2729;DHT22;1372;47.956;7.830;2023-04-24T01:35:54;12.70;99.90
2729;DHT22;1372;47.956;7.830;2023-04-24T01:38:25;12.60;99.90
2729;DHT22;1372;47.956;7.830;2023-04-24T01:40:55;12.70;99.90
2729;DHT22;1372;47.956;7.830;2023-04-24T01:43:24;12.60;99.90
2729;DHT22;1372;47.956;7.830;2023-04-24T01:45:53;12.60;99.90
2729;DHT22;1372;47.956;7.830;2023-04-24T01:48:23;12.60;99.90
2729;DHT22;1372;47.956;7.830;2023-04-24T01:50:53;12.70;99.90
2729;DHT22;1372;47.956;7.830;2023-04-24T01:53:22;12.60;99.90
2729;DHT22;1372;47.956;7.830;2023-04-24T01:55:51;12.50;99.90
2729;DHT22;1372;47.956;7.830;2023-04-24T01:58:22;12.60;99.90
2729;DHT22;1372;47.956;7.830;2023-04-24T02:00:52;12.50;99.90
2729;DHT22;1372;47.956;7.830;2023-04-24T02:03:20;12.50;99.90
2729;DHT22;1372;47.956;7.830;2023-04-24T02:05:49;12.50;99.90
2729;DHT22;1372;47.956;7.830;2023-04-24T02:08:18;12.50;99.90
2729;DHT22;1372;47.956;7.830;2023-04-24T02:10:47;12.50;99.90
2729;DHT22;1372;47.956;7.830;2023-04-24T02:13:15;12.60;99.90
2729;DHT22;1372;47.956;7.830;2023-04-24T02:15:46;12.50;99.90
2729;DHT22;1372;47.956;7.830;2023-04-24T02:18:15;12.50;99.90
2729;DHT22;1372;47.956;7.830;2023-04-24T02:20:44;12.50;99.90
2729;DHT22;1372;47.956;7.830;2023-04-24T02:23:12;12.30;99.90
2729;DHT22;1372;47.956;7.830;2023-04-24T02:25:41;12.30;99.90
2729;DHT22;1372;47.956;7.830;2023-04-24T02:28:10;12.20;99.90
2729;DHT22;1372;47.956;7.830;2023-04-24T02:30:39;12.00;99.90
2729;DHT22;1372;47.956;7.830;2023-04-24T02:33:09;12.10;99.90
2729;DHT22;1372;47.956;7.830;2023-04-24T02:35:37;12.10;99.90
2729;DHT22;1372;47.956;7.830;2023-04-24T02:38:07;12.10;99.90
2729;DHT22;1372;47.956;7.830;2023-04-24T02:40:36;12.10;99.90
2729;DHT22;1372;47.956;7.830;2023-04-24T02:43:05;12.10;99.90
2729;DHT22;1372;47.956;7.830;2023-04-24T02:45:33;12.10;99.90
2729;DHT22;1372;47.956;7.830;2023-04-24T02:48:03;12.10;99.90
2729;DHT22;1372;47.956;7.830;2023-04-24T02:50:33;12.10;99.90
2729;DHT22;1372;47.956;7.830;2023-04-24T02:53:02;12.20;99.90
2729;DHT22;1372;47.956;7.830;2023-04-24T02:55:30;12.10;99.90
2729;DHT22;1372;47.956;7.830;2023-04-24T02:57:59;12.10;99.90
2729;DHT22;1372;47.956;7.830;2023-04-24T03:00:28;12.20;99.90
2729;DHT22;1372;47.956;7.830;2023-04-24T03:02:57;12.20;99.90
2729;DHT22;1372;47.956;7.830;2023-04-24T03:05:26;12.30;99.90
2729;DHT22;1372;47.956;7.830;2023-04-24T03:07:56;12.20;99.90
2729;DHT22;1372;47.956;7.830;2023-04-24T03:10:25;12.30;99.90
2729;DHT22;1372;47.956;7.830;2023-04-24T03:12:54;12.10;99.90
2729;DHT22;1372;47.956;7.830;2023-04-24T03:15:23;12.20;99.90
2729;DHT22;1372;47.956;7.830;2023-04-24T03:17:51;12.20;99.90
2729;DHT22;1372;47.956;7.830;2023-04-24T03:20:22;12.30;99.90
2729;DHT22;1372;47.956;7.830;2023-04-24T03:22:51;12.30;99.90
2729;DHT22;1372;47.956;7.830;2023-04-24T03:25:22;12.30;99.90
2729;DHT22;1372;47.956;7.830;2023-04-24T03:27:50;12.20;99.90
2729;DHT22;1372;47.956;7.830;2023-04-24T03:30:19;12.20;99.90
2729;DHT22;1372;47.956;7.830;2023-04-24T03:32:51;12.10;99.90
2729;DHT22;1372;47.956;7.830;2023-04-24T03:35:20;12.20;99.90
2729;DHT22;1372;47.956;7.830;2023-04-24T03:37:49;12.10;99.90
2729;DHT22;1372;47.956;7.830;2023-04-24T03:40:18;12.00;99.90
2729;DHT22;1372;47.956;7.830;2023-04-24T03:42:48;12.00;99.90
2729;DHT22;1372;47.956;7.830;2023-04-24T03:45:17;12.00;99.90
2729;DHT22;1372;47.956;7.830;2023-04-24T03:47:48;11.90;99.90
2729;DHT22;1372;47.956;7.830;2023-04-24T03:50:17;12.00;99.90
2729;DHT22;1372;47.956;7.830;2023-04-24T03:52:46;12.00;99.90
2729;DHT22;1372;47.956;7.830;2023-04-24T03:55:15;11.90;99.90
2729;DHT22;1372;47.956;7.830;2023-04-24T03:57:44;11.90;99.90
2729;DHT22;1372;47.956;7.830;2023-04-24T04:00:15;11.90;99.90
2729;DHT22;1372;47.956;7.830;2023-04-24T04:02:44;11.90;99.90
2729;DHT22;1372;47.956;7.830;2023-04-24T04:05:14;11.80;99.90
2729;DHT22;1372;47.956;7.830;2023-04-24T04:07:43;11.80;99.90
2729;DHT22;1372;47.956;7.830;2023-04-24T04:10:12;11.90;99.90
2729;DHT22;1372;47.956;7.830;2023-04-24T04:12:43;11.80;99.90
2729;DHT22;1372;47.956;7.830;2023-04-24T04:15:11;11.70;99.90
2729;DHT22;1372;47.956;7.830;2023-04-24T04:17:42;11.80;99.90
2729;DHT22;1372;47.956;7.830;2023-04-24T04:20:10;11.80;99.90
2729;DHT22;1372;47.956;7.830;2023-04-24T04:22:39;11.80;99.90
2729;DHT22;1372;47.956;7.830;2023-04-24T04:25:11;11.80;99.90
2729;DHT22;1372;47.956;7.830;2023-04-24T04:27:40;11.80;99.90
2729;DHT22;1372;47.956;7.830;2023-04-24T04:30:09;11.80;99.90
2729;DHT22;1372;47.956;7.830;2023-04-24T04:32:42;11.90;99.90
2729;DHT22;1372;47.956;7.830;2023-04-24T04:35:11;11.80;99.90
2729;DHT22;1372;47.956;7.830;2023-04-24T04:37:40;11.80;99.90
2729;DHT22;1372;47.956;7.830;2023-04-24T04:40:09;11.80;99.90
2729;DHT22;1372;47.956;7.830;2023-04-24T04:42:39;11.70;99.90
2729;DHT22;1372;47.956;7.830;2023-04-24T04:45:08;11.80;99.90
2729;DHT22;1372;47.956;7.830;2023-04-24T04:47:42;11.90;99.90
2729;DHT22;1372;47.956;7.830;2023-04-24T04:50:11;11.90;99.90
2729;DHT22;1372;47.956;7.830;2023-04-24T04:52:41;11.90;99.90
2729;DHT22;1372;47.956;7.830;2023-04-24T04:55:12;11.80;99.90
2729;DHT22;1372;47.956;7.830;2023-04-24T04:57:41;11.80;99.90
2729;DHT22;1372;47.956;7.830;2023-04-24T05:00:11;11.80;99.90
2729;DHT22;1372;47.956;7.830;2023-04-24T05:02:42;11.80;99.90
2729;DHT22;1372;47.956;7.830;2023-04-24T05:05:11;11.70;99.90
2729;DHT22;1372;47.956;7.830;2023-04-24T05:07:40;11.70;99.90
2729;DHT22;1372;47.956;7.830;2023-04-24T05:10:09;11.50;99.90
2729;DHT22;1372;47.956;7.830;2023-04-24T05:12:38;11.60;99.90
2729;DHT22;1372;47.956;7.830;2023-04-24T05:15:07;11.70;99.90
2729;DHT22;1372;47.956;7.830;2023-04-24T05:17:36;11.70;99.90
2729;DHT22;1372;47.956;7.830;2023-04-24T05:20:08;11.70;99.90
2729;DHT22;1372;47.956;7.830;2023-04-24T05:22:37;11.80;99.90
2729;DHT22;1372;47.956;7.830;2023-04-24T05:25:06;11.80;99.90
2729;DHT22;1372;47.956;7.830;2023-04-24T05:27:35;11.70;99.90
2729;DHT22;1372;47.956;7.830;2023-04-24T05:30:05;11.80;99.90
2729;DHT22;1372;47.956;7.830;2023-04-24T05:32:36;11.80;99.90
2729;DHT22;1372;47.956;7.830;2023-04-24T05:35:05;11.80;99.90
2729;DHT22;1372;47.956;7.830;2023-04-24T05:37:36;11.70;99.90
2729;DHT22;1372;47.956;7.830;2023-04-24T05:40:08;11.70;99.90
2729;DHT22;1372;47.956;7.830;2023-04-24T05:42:38;11.60;99.90
2729;DHT22;1372;47.956;7.830;2023-04-24T05:45:08;11.60;99.90
2729;DHT22;1372;47.956;7.830;2023-04-24T05:47:42;11.60;99.90
2729;DHT22;1372;47.956;7.830;2023-04-24T05:50:13;11.60;99.90
2729;DHT22;1372;47.956;7.830;2023-04-24T05:52:42;11.60;99.90
2729;DHT22;1372;47.956;7.830;2023-04-24T05:55:11;11.60;99.90
2729;DHT22;1372;47.956;7.830;2023-04-24T05:57:40;11.60;99.90
2729;DHT22;1372;47.956;7.830;2023-04-24T06:00:10;11.60;99.90
2729;DHT22;1372;47.956;7.830;2023-04-24T06:02:40;11.50;99.90
2729;DHT22;1372;47.956;7.830;2023-04-24T06:05:09;11.50;99.90
2729;DHT22;1372;47.956;7.830;2023-04-24T06:07:42;11.30;99.90
2729;DHT22;1372;47.956;7.830;2023-04-24T06:10:11;11.40;99.90
2729;DHT22;1372;47.956;7.830;2023-04-24T06:12:40;11.40;99.90
2729;DHT22;1372;47.956;7.830;2023-04-24T06:15:10;11.60;99.90
2729;DHT22;1372;47.956;7.830;2023-04-24T06:17:39;11.60;99.90
2729;DHT22;1372;47.956;7.830;2023-04-24T06:20:08;11.70;99.90
2729;DHT22;1372;47.956;7.830;2023-04-24T06:22:38;11.70;99.90
2729;DHT22;1372;47.956;7.830;2023-04-24T06:25:09;11.50;99.90
2729;DHT22;1372;47.956;7.830;2023-04-24T06:27:37;11.50;99.90
2729;DHT22;1372;47.956;7.830;2023-04-24T06:30:07;11.50;99.90
2729;DHT22;1372;47.956;7.830;2023-04-24T06:32:37;11.40;99.90
2729;DHT22;1372;47.956;7.830;2023-04-24T06:35:07;11.30;99.90
2729;DHT22;1372;47.956;7.830;2023-04-24T06:37:37;11.40;99.90
2729;DHT22;1372;47.956;7.830;2023-04-24T06:40:08;11.30;99.90
2729;DHT22;1372;47.956;7.830;2023-04-24T06:42:37;11.30;99.90
2729;DHT22;1372;47.956;7.830;2023-04-24T06:45:07;11.30;99.90
2729;DHT22;1372;47.956;7.830;2023-04-24T06:47:36;11.30;99.90
2729;DHT22;1372;47.956;7.830;2023-04-24T06:50:06;11.30;99.90
2729;DHT22;1372;47.956;7.830;2023-04-24T06:52:35;11.30;99.90
2729;DHT22;1372;47.956;7.830;2023-04-24T06:55:05;11.40;99.90
2729;DHT22;1372;47.956;7.830;2023-04-24T06:57:38;11.40;99.90
2729;DHT22;1372;47.956;7.830;2023-04-24T07:00:08;11.40;99.90
2729;DHT22;1372;47.956;7.830;2023-04-24T07:02:37;11.40;99.90
2729;DHT22;1372;47.956;7.830;2023-04-24T07:05:07;11.60;99.90
2729;DHT22;1372;47.956;7.830;2023-04-24T07:07:36;11.60;99.90
2729;DHT22;1372;47.956;7.830;2023-04-24T07:10:09;11.70;99.90
2729;DHT22;1372;47.956;7.830;2023-04-24T07:12:40;11.60;99.90
2729;DHT22;1372;47.956;7.830;2023-04-24T07:15:12;11.70;99.90
2729;DHT22;1372;47.956;7.830;2023-04-24T07:17:43;11.70;99.90
2729;DHT22;1372;47.956;7.830;2023-04-24T07:20:12;11.70;99.90
2729;DHT22;1372;47.956;7.830;2023-04-24T07:22:43;11.70;99.90
2729;DHT22;1372;47.956;7.830;2023-04-24T07:25:13;11.60;99.90
2729;DHT22;1372;47.956;7.830;2023-04-24T07:27:45;11.50;99.90
2729;DHT22;1372;47.956;7.830;2023-04-24T07:30:15;11.50;99.90
2729;DHT22;1372;47.956;7.830;2023-04-24T07:32:44;11.40;99.90
2729;DHT22;1372;47.956;7.830;2023-04-24T07:35:13;11.50;99.90
2729;DHT22;1372;47.956;7.830;2023-04-24T07:37:44;11.50;99.90
2729;DHT22;1372;47.956;7.830;2023-04-24T07:40:17;11.50;99.90
2729;DHT22;1372;47.956;7.830;2023-04-24T07:42:46;11.40;99.90
2729;DHT22;1372;47.956;7.830;2023-04-24T07:45:16;11.40;99.90
2729;DHT22;1372;47.956;7.830;2023-04-24T07:47:45;11.50;99.90
2729;DHT22;1372;47.956;7.830;2023-04-24T07:50:14;11.60;99.90
2729;DHT22;1372;47.956;7.830;2023-04-24T07:52:42;11.70;99.90
2729;DHT22;1372;47.956;7.830;2023-04-24T07:55:11;11.70;99.90
2729;DHT22;1372;47.956;7.830;2023-04-24T07:57:42;11.90;99.90
2729;DHT22;1372;47.956;7.830;2023-04-24T08:00:12;12.00;99.90
2729;DHT22;1372;47.956;7.830;2023-04-24T08:02:41;12.20;99.90
2729;DHT22;1372;47.956;7.830;2023-04-24T08:05:12;12.10;99.90
2729;DHT22;1372;47.956;7.830;2023-04-24T08:07:41;12.10;99.90
2729;DHT22;1372;47.956;7.830;2023-04-24T08:10:15;12.00;99.90
2729;DHT22;1372;47.956;7.830;2023-04-24T08:12:45;12.00;99.90
2729;DHT22;1372;47.956;7.830;2023-04-24T08:15:14;12.00;99.90
2729;DHT22;1372;47.956;7.830;2023-04-24T08:17:43;11.90;99.90
2729;DHT22;1372;47.956;7.830;2023-04-24T08:20:12;11.90;99.90
2729;DHT22;1372;47.956;7.830;2023-04-24T08:22:42;11.90;99.90
2729;DHT22;1372;47.956;7.830;2023-04-24T08:25:15;11.80;99.90
2729;DHT22;1372;47.956;7.830;2023-04-24T08:27:46;11.80;99.90
2729;DHT22;1372;47.956;7.830;2023-04-24T08:30:15;11.80;99.90
2729;DHT22;1372;47.956;7.830;2023-04-24T08:32:44;11.80;99.90
2729;DHT22;1372;47.956;7.830;2023-04-24T08:35:15;11.90;99.90
2729;DHT22;1372;47.956;7.830;2023-04-24T08:37:44;11.80;99.90
2729;DHT22;1372;47.956;7.830;2023-04-24T08:40:15;11.80;99.90
2729;DHT22;1372;47.956;7.830;2023-04-24T08:42:46;11.90;99.90
2729;DHT22;1372;47.956;7.830;2023-04-24T08:45:18;11.90;99.90
2729;DHT22;1372;47.956;7.830;2023-04-24T08:47:47;11.90;99.90
2729;DHT22;1372;47.956;7.830;2023-04-24T08:50:19;12.10;99.90
2729;DHT22;1372;47.956;7.830;2023-04-24T08:52:50;12.10;99.90
2729;DHT22;1372;47.956;7.830;2023-04-24T08:55:21;12.10;99.90
2729;DHT22;1372;47.956;7.830;2023-04-24T08:57:52;12.10;99.90
2729;DHT22;1372;47.956;7.830;2023-04-24T09:00:21;12.10;99.90
2729;DHT22;1372;47.956;7.830;2023-04-24T09:02:52;12.00;99.90
2729;DHT22;1372;47.956;7.830;2023-04-24T09:05:23;11.90;99.90
2729;DHT22;1372;47.956;7.830;2023-04-24T09:07:56;12.00;99.90
2729;DHT22;1372;47.956;7.830;2023-04-24T09:10:28;12.00;99.90
2729;DHT22;1372;47.956;7.830;2023-04-24T09:12:59;12.10;99.90
2729;DHT22;1372;47.956;7.830;2023-04-24T09:15:29;12.10;99.90
2729;DHT22;1372;47.956;7.830;2023-04-24T09:17:59;12.20;99.90
2729;DHT22;1372;47.956;7.830;2023-04-24T09:20:28;12.10;99.90
2729;DHT22;1372;47.956;7.830;2023-04-24T09:22:57;12.00;99.90
2729;DHT22;1372;47.956;7.830;2023-04-24T09:25:31;12.20;99.90
2729;DHT22;1372;47.956;7.830;2023-04-24T09:28:03;12.40;99.90
2729;DHT22;1372;47.956;7.830;2023-04-24T09:30:33;12.50;99.90
2729;DHT22;1372;47.956;7.830;2023-04-24T09:33:12;12.40;99.90
2729;DHT22;1372;47.956;7.830;2023-04-24T09:35:42;12.30;99.90
2729;DHT22;1372;47.956;7.830;2023-04-24T09:38:13;12.10;99.90
2729;DHT22;1372;47.956;7.830;2023-04-24T09:40:42;12.10;99.90
2729;DHT22;1372;47.956;7.830;2023-04-24T09:43:15;12.10;99.90
2729;DHT22;1372;47.956;7.830;2023-04-24T09:45:44;12.00;99.90
2729;DHT22;1372;47.956;7.830;2023-04-24T09:48:13;12.00;99.90
2729;DHT22;1372;47.956;7.830;2023-04-24T09:50:46;11.90;99.90
2729;DHT22;1372;47.956;7.830;2023-04-24T09:53:15;11.90;99.90
2729;DHT22;1372;47.956;7.830;2023-04-24T09:55:45;11.80;99.90
2729;DHT22;1372;47.956;7.830;2023-04-24T09:58:17;11.90;99.90
2729;DHT22;1372;47.956;7.830;2023-04-24T10:00:46;11.90;99.90
2729;DHT22;1372;47.956;7.830;2023-04-24T10:03:14;11.80;99.90
2729;DHT22;1372;47.956;7.830;2023-04-24T10:05:46;11.90;99.90
2729;DHT22;1372;47.956;7.830;2023-04-24T10:08:18;12.00;99.90
2729;DHT22;1372;47.956;7.830;2023-04-24T10:10:47;12.10;99.90
2729;DHT22;1372;47.956;7.830;2023-04-24T10:13:18;12.20;99.90
2729;DHT22;1372;47.956;7.830;2023-04-24T10:15:48;12.20;99.90
2729;DHT22;1372;47.956;7.830;2023-04-24T10:18:18;12.10;99.90
2729;DHT22;1372;47.956;7.830;2023-04-24T10:20:49;12.10;99.90
2729;DHT22;1372;47.956;7.830;2023-04-24T10:23:19;12.20;99.90
2729;DHT22;1372;47.956;7.830;2023-04-24T10:25:48;12.30;99.90
2729;DHT22;1372;47.956;7.830;2023-04-24T10:28:20;12.30;99.90
2729;DHT22;1372;47.956;7.830;2023-04-24T10:30:51;12.40;99.90
2729;DHT22;1372;47.956;7.830;2023-04-24T10:33:24;12.50;99.90
2729;DHT22;1372;47.956;7.830;2023-04-24T10:35:57;12.70;99.90
2729;DHT22;1372;47.956;7.830;2023-04-24T10:38:28;12.70;99.90
2729;DHT22;1372;47.956;7.830;2023-04-24T10:41:06;12.60;99.90
2729;DHT22;1372;47.956;7.830;2023-04-24T10:43:41;12.60;99.90
2729;DHT22;1372;47.956;7.830;2023-04-24T10:46:10;12.60;99.90
2729;DHT22;1372;47.956;7.830;2023-04-24T10:48:52;12.60;99.90
2729;DHT22;1372;47.956;7.830;2023-04-24T10:51:22;12.90;99.90
2729;DHT22;1372;47.956;7.830;2023-04-24T10:53:52;13.10;99.90
2729;DHT22;1372;47.956;7.830;2023-04-24T10:56:22;13.10;99.90
2729;DHT22;1372;47.956;7.830;2023-04-24T10:58:53;13.00;99.90
2729;DHT22;1372;47.956;7.830;2023-04-24T11:01:26;13.10;99.90
2729;DHT22;1372;47.956;7.830;2023-04-24T11:03:57;12.90;99.90
2729;DHT22;1372;47.956;7.830;2023-04-24T11:06:31;12.80;99.90
2729;DHT22;1372;47.956;7.830;2023-04-24T11:09:03;12.70;99.90
2729;DHT22;1372;47.956;7.830;2023-04-24T11:11:35;12.40;99.90
2729;DHT22;1372;47.956;7.830;2023-04-24T11:14:09;12.30;99.90
2729;DHT22;1372;47.956;7.830;2023-04-24T11:16:46;12.30;99.90
2729;DHT22;1372;47.956;7.830;2023-04-24T11:19:24;12.30;99.90
2729;DHT22;1372;47.956;7.830;2023-04-24T11:21:57;12.50;99.90
2729;DHT22;1372;47.956;7.830;2023-04-24T11:24:32;12.40;99.90
2729;DHT22;1372;47.956;7.830;2023-04-24T11:27:11;12.50;99.90
2729;DHT22;1372;47.956;7.830;2023-04-24T11:29:46;12.70;99.90
2729;DHT22;1372;47.956;7.830;2023-04-24T11:32:26;12.80;99.90
2729;DHT22;1372;47.956;7.830;2023-04-24T11:34:58;12.80;99.90
2729;DHT22;1372;47.956;7.830;2023-04-24T11:37:34;12.80;99.90
2729;DHT22;1372;47.956;7.830;2023-04-24T11:40:06;12.80;99.90
2729;DHT22;1372;47.956;7.830;2023-04-24T11:42:36;12.90;99.90
2729;DHT22;1372;47.956;7.830;2023-04-24T11:45:10;13.10;99.90
2729;DHT22;1372;47.956;7.830;2023-04-24T11:47:41;13.00;99.90
2729;DHT22;1372;47.956;7.830;2023-04-24T11:50:11;13.00;99.90
2729;DHT22;1372;47.956;7.830;2023-04-24T11:52:43;12.90;99.90
2729;DHT22;1372;47.956;7.830;2023-04-24T11:55:24;12.90;99.90
2729;DHT22;1372;47.956;7.830;2023-04-24T11:57:56;13.00;99.90
2729;DHT22;1372;47.956;7.830;2023-04-24T12:00:29;12.90;99.90
2729;DHT22;1372;47.956;7.830;2023-04-24T12:03:06;12.90;99.90
2729;DHT22;1372;47.956;7.830;2023-04-24T12:05:36;13.00;99.90
2729;DHT22;1372;47.956;7.830;2023-04-24T12:08:06;13.00;99.90
2729;DHT22;1372;47.956;7.830;2023-04-24T12:10:37;13.10;99.90
2729;DHT22;1372;47.956;7.830;2023-04-24T12:19:18;13.20;99.90
2729;DHT22;1372;47.956;7.830;2023-04-24T12:22:00;13.40;99.90
2729;DHT22;1372;47.956;7.830;2023-04-24T12:24:59;13.50;99.90
2729;DHT22;1372;47.956;7.830;2023-04-24T12:27:32;13.50;99.90
2729;DHT22;1372;47.956;7.830;2023-04-24T12:30:19;13.60;99.90
2729;DHT22;1372;47.956;7.830;2023-04-24T12:32:50;13.60;99.90
2729;DHT22;1372;47.956;7.830;2023-04-24T12:35:25;13.50;99.90
2729;DHT22;1372;47.956;7.830;2023-04-24T12:38:08;13.50;99.90
2729;DHT22;1372;47.956;7.830;2023-04-24T12:40:39;13.60;99.90
2729;DHT22;1372;47.956;7.830;2023-04-24T12:43:16;13.60;99.90
2729;DHT22;1372;47.956;7.830;2023-04-24T12:45:47;13.60;99.90
2729;DHT22;1372;47.956;7.830;2023-04-24T12:48:16;13.60;99.90
2729;DHT22;1372;47.956;7.830;2023-04-24T12:50:46;13.60;99.90
2729;DHT22;1372;47.956;7.830;2023-04-24T12:53:15;13.60;99.90
2729;DHT22;1372;47.956;7.830;2023-04-24T12:55:44;13.60;99.90
2729;DHT22;1372;47.956;7.830;2023-04-24T12:58:14;13.50;99.90
2729;DHT22;1372;47.956;7.830;2023-04-24T13:00:43;13.50;99.90
2729;DHT22;1372;47.956;7.830;2023-04-24T13:03:13;13.50;99.90
2729;DHT22;1372;47.956;7.830;2023-04-24T13:05:46;13.50;99.90
2729;DHT22;1372;47.956;7.830;2023-04-24T13:08:15;13.50;99.90
2729;DHT22;1372;47.956;7.830;2023-04-24T13:10:45;13.60;99.90
2729;DHT22;1372;47.956;7.830;2023-04-24T13:13:15;13.60;99.90
2729;DHT22;1372;47.956;7.830;2023-04-24T13:15:47;13.60;99.90
2729;DHT22;1372;47.956;7.830;2023-04-24T13:18:18;13.70;99.90
2729;DHT22;1372;47.956;7.830;2023-04-24T13:20:48;13.60;99.90
2729;DHT22;1372;47.956;7.830;2023-04-24T13:23:17;13.70;99.90
2729;DHT22;1372;47.956;7.830;2023-04-24T13:25:46;13.80;99.90
2729;DHT22;1372;47.956;7.830;2023-04-24T13:28:14;13.60;99.90
2729;DHT22;1372;47.956;7.830;2023-04-24T13:30:43;13.50;99.90
2729;DHT22;1372;47.956;7.830;2023-04-24T13:33:12;13.50;99.90
2729;DHT22;1372;47.956;7.830;2023-04-24T13:35:41;13.50;99.90
2729;DHT22;1372;47.956;7.830;2023-04-24T13:38:13;13.60;99.90
2729;DHT22;1372;47.956;7.830;2023-04-24T13:40:43;13.70;99.90
2729;DHT22;1372;47.956;7.830;2023-04-24T13:43:11;13.60;99.90
2729;DHT22;1372;47.956;7.830;2023-04-24T13:45:41;13.80;99.90
2729;DHT22;1372;47.956;7.830;2023-04-24T13:48:13;13.80;99.90
2729;DHT22;1372;47.956;7.830;2023-04-24T13:50:43;13.90;99.90
2729;DHT22;1372;47.956;7.830;2023-04-24T13:53:17;14.00;99.90
2729;DHT22;1372;47.956;7.830;2023-04-24T13:55:45;14.00;99.90
2729;DHT22;1372;47.956;7.830;2023-04-24T13:58:14;14.00;99.90
2729;DHT22;1372;47.956;7.830;2023-04-24T14:00:43;14.10;99.90
2729;DHT22;1372;47.956;7.830;2023-04-24T14:03:12;14.10;99.90
2729;DHT22;1372;47.956;7.830;2023-04-24T14:05:41;14.20;99.90
2729;DHT22;1372;47.956;7.830;2023-04-24T14:08:10;14.30;99.90
2729;DHT22;1372;47.956;7.830;2023-04-24T14:10:40;14.50;99.90
2729;DHT22;1372;47.956;7.830;2023-04-24T14:13:09;14.50;99.90
2729;DHT22;1372;47.956;7.830;2023-04-24T14:15:38;14.40;99.90
2729;DHT22;1372;47.956;7.830;2023-04-24T14:18:07;14.40;99.90
2729;DHT22;1372;47.956;7.830;2023-04-24T14:20:39;14.40;99.90
2729;DHT22;1372;47.956;7.830;2023-04-24T14:23:08;14.20;99.90
2729;DHT22;1372;47.956;7.830;2023-04-24T14:25:41;13.90;99.90
2729;DHT22;1372;47.956;7.830;2023-04-24T14:28:12;13.80;99.90
2729;DHT22;1372;47.956;7.830;2023-04-24T14:30:41;13.70;99.90
2729;DHT22;1372;47.956;7.830;2023-04-24T14:33:10;13.50;99.90
2729;DHT22;1372;47.956;7.830;2023-04-24T14:35:40;13.50;99.90
2729;DHT22;1372;47.956;7.830;2023-04-24T14:38:10;13.50;99.90
2729;DHT22;1372;47.956;7.830;2023-04-24T14:40:41;13.50;99.90
2729;DHT22;1372;47.956;7.830;2023-04-24T14:43:12;13.50;99.90
2729;DHT22;1372;47.956;7.830;2023-04-24T14:45:42;13.60;99.90
2729;DHT22;1372;47.956;7.830;2023-04-24T14:48:11;13.40;99.90
2729;DHT22;1372;47.956;7.830;2023-04-24T14:50:43;13.40;99.90
2729;DHT22;1372;47.956;7.830;2023-04-24T14:53:13;13.20;99.90
2729;DHT22;1372;47.956;7.830;2023-04-24T14:55:43;13.20;99.90
2729;DHT22;1372;47.956;7.830;2023-04-24T14:58:12;13.40;99.90
2729;DHT22;1372;47.956;7.830;2023-04-24T15:00:44;13.50;99.90
2729;DHT22;1372;47.956;7.830;2023-04-24T15:03:13;13.50;99.90
2729;DHT22;1372;47.956;7.830;2023-04-24T15:05:43;13.50;99.90
2729;DHT22;1372;47.956;7.830;2023-04-24T15:08:12;13.40;99.90
2729;DHT22;1372;47.956;7.830;2023-04-24T15:10:41;13.40;99.90
2729;DHT22;1372;47.956;7.830;2023-04-24T15:13:11;13.50;99.90
2729;DHT22;1372;47.956;7.830;2023-04-24T15:15:40;13.60;99.90
2729;DHT22;1372;47.956;7.830;2023-04-24T15:18:10;13.60;99.90
2729;DHT22;1372;47.956;7.830;2023-04-24T15:20:39;13.70;99.90
2729;DHT22;1372;47.956;7.830;2023-04-24T15:23:09;13.70;99.90
2729;DHT22;1372;47.956;7.830;2023-04-24T15:25:38;13.60;99.90
2729;DHT22;1372;47.956;7.830;2023-04-24T15:28:09;13.60;99.90
2729;DHT22;1372;47.956;7.830;2023-04-24T15:30:38;13.50;99.90
2729;DHT22;1372;47.956;7.830;2023-04-24T15:33:07;13.40;99.90
2729;DHT22;1372;47.956;7.830;2023-04-24T15:35:36;13.50;99.90
2729;DHT22;1372;47.956;7.830;2023-04-24T15:38:08;13.50;99.90
2729;DHT22;1372;47.956;7.830;2023-04-24T15:40:36;13.50;99.90
2729;DHT22;1372;47.956;7.830;2023-04-24T15:43:05;13.50;99.90
2729;DHT22;1372;47.956;7.830;2023-04-24T15:45:36;13.30;99.90
2729;DHT22;1372;47.956;7.830;2023-04-24T15:48:05;13.40;99.90
2729;DHT22;1372;47.956;7.830;2023-04-24T15:50:34;13.40;99.90
2729;DHT22;1372;47.956;7.830;2023-04-24T15:53:03;13.50;99.90
2729;DHT22;1372;47.956;7.830;2023-04-24T15:55:32;13.40;99.90
2729;DHT22;1372;47.956;7.830;2023-04-24T15:58:03;13.40;99.90
2729;DHT22;1372;47.956;7.830;2023-04-24T16:00:32;13.50;99.90
2729;DHT22;1372;47.956;7.830;2023-04-24T16:03:03;13.40;99.90
2729;DHT22;1372;47.956;7.830;2023-04-24T16:05:37;13.40;99.90
2729;DHT22;1372;47.956;7.830;2023-04-24T16:08:06;13.20;99.90
2729;DHT22;1372;47.956;7.830;2023-04-24T16:10:34;13.20;99.90
2729;DHT22;1372;47.956;7.830;2023-04-24T16:13:03;13.20;99.90
2729;DHT22;1372;47.956;7.830;2023-04-24T16:15:33;13.20;99.90
2729;DHT22;1372;47.956;7.830;2023-04-24T16:18:03;13.10;99.90
2729;DHT22;1372;47.956;7.830;2023-04-24T16:20:33;13.10;99.90
2729;DHT22;1372;47.956;7.830;2023-04-24T16:23:02;13.10;99.90
2729;DHT22;1372;47.956;7.830;2023-04-24T16:25:34;13.00;99.90
2729;DHT22;1372;47.956;7.830;2023-04-24T16:28:02;13.00;99.90